Crestview, FL

2:11 PM CDT on October 01, 2016 (GMT -0500)
Ridgecrest Estates | | Change Station

Elev 210 ft 30.76 °N, 86.58 °W | Updated 10 minutes ago

Clear
Clear
88.1 °F
Feels Like 88 °F
N
3.0
Wind Variable Wind from SSE

Today
High -- | Low -- °F
--% Chance of Precip.
Yesterday
High -- | Low -- °F
Precip. -- in
Pressure 30.05 in
Visibility 10.0 miles
Clouds Clear
Heat Index 88 °F
Dew Point 61 °F
Humidity 40%
Rainfall 0.00 in
Snow Depth Not available.
6:40 AM 6:30 PM
New Moon, 1% visible
METAR KCEW 011853Z AUTO 01004KT 10SM CLR 27/11 A3005 RMK AO2 SLP174 T02720111
Pressure 30.05 in
Visibility 10.0 miles
Clouds Clear
Heat Index 88 °F
Dew Point 61 °F
Humidity 40%
Rainfall 0.00 in
Snow Depth Not available.
6:40 AM 6:30 PM
New Moon, 1% visible
METAR KCEW 011853Z AUTO 01004KT 10SM CLR 27/11 A3005 RMK AO2 SLP174 T02720111

10-Day Weather Forecast

Almanac

Astronomy

Oct. 01, 2016 Rise Set
Actual Time
Civil Twilight
Nautical Twilight
Astronomical Twilight
Moon
Length of Visible Light
Length of Day
Tomorrow will be .
, % of the Moon is Illuminated

Today's Extremes

State Highs State Lows

Community

WunderPhotos

Upload Photos

1,942,999 photos uploaded!

WunderBlog® & News

Nearby

Air Quality

  Air Quality AQ Index Pollutant
Not available.

Snow Depth

Station Depth Elevation

Earthquake Activity

City Distance Mag. Time & Date
Minimum magnitude displayed is 2.5.

Coastal Water Temperatures

Place Temperature

Stations

Nearby Weather Stations

Station Location Temp. Windchill Dew Point Humidity Wind Precip. Elev Updated Type
                   

Watches & Warnings

There are currently no watches in effect.